Time;durP1;ratioP1;P1;durP2;ratioP2;P2;SDS_P1;SDS_P2;PMS_P1;PMS_P2;Temp;Humidity;BMP_temperature;BMP_pressure;BME280_temperature;BME280_humidity;BME280_pressure;Samples;Min_cycle;Max_cycle;Signal;HPM_P1;HPM_P2
2023/08/27 00:01:34;;;;;;;6.73;5.10;;;;;;;;;;5050386;28;20291;-71
2023/08/27 00:04:00;;;;;;;6.73;4.70;;;;;;;;;;5049988;28;20210;-71
2023/08/27 00:06:26;;;;;;;4.97;4.10;;;;;;;;;;5050027;28;20258;-71
2023/08/27 00:08:53;;;;;;;5.07;4.27;;;;;;;;;;5049626;28;20226;-71
2023/08/27 00:11:19;;;;;;;6.13;4.07;;;;;;;;;;5037714;28;20195;-72
2023/08/27 00:13:45;;;;;;;5.47;4.50;;;;;;;;;;5049797;28;20198;-72
2023/08/27 00:16:11;;;;;;;5.57;3.93;;;;;;;;;;5047542;28;20658;-71
2023/08/27 00:18:38;;;;;;;9.97;4.37;;;;;;;;;;5045680;28;20286;-72
2023/08/27 00:21:04;;;;;;;6.27;4.20;;;;;;;;;;5049817;28;20214;-72
2023/08/27 00:23:31;;;;;;;6.47;4.10;;;;;;;;;;5049997;28;20199;-71
2023/08/27 00:25:57;;;;;;;5.37;4.10;;;;;;;;;;5048877;28;20763;-71
2023/08/27 00:28:23;;;;;;;6.27;4.27;;;;;;;;;;5046053;28;20573;-71
2023/08/27 00:30:49;;;;;;;4.83;3.60;;;;;;;;;;5049813;28;20282;-71
2023/08/27 00:33:16;;;;;;;6.63;3.93;;;;;;;;;;5048996;28;20555;-71
2023/08/27 00:35:48;;;;;;;6.33;3.90;;;;;;;;;;5047355;28;20222;-71
2023/08/27 00:38:14;;;;;;;6.17;4.30;;;;;;;;;;5041242;28;20207;-72
2023/08/27 00:40:41;;;;;;;6.83;4.17;;;;;;;;;;5042910;28;20576;-72
2023/08/27 00:43:07;;;;;;;5.00;3.87;;;;;;;;;;5048952;28;20297;-72
2023/08/27 00:45:33;;;;;;;6.50;3.70;;;;;;;;;;5049717;28;20219;-71
2023/08/27 00:48:00;;;;;;;7.67;4.97;;;;;;;;;;5047859;28;20278;-72
2023/08/27 00:50:26;;;;;;;7.67;4.27;;;;;;;;;;5032141;28;20203;-72
2023/08/27 00:52:53;;;;;;;5.00;3.70;;;;;;;;;;5049753;28;20568;-71
2023/08/27 00:55:19;;;;;;;6.27;4.07;;;;;;;;;;5032150;28;20214;-72
2023/08/27 00:57:46;;;;;;;7.10;4.50;;;;;;;;;;5044915;28;20203;-72
2023/08/27 01:00:13;;;;;;;6.40;4.20;;;;;;;;;;5041523;28;20199;-71
2023/08/27 01:02:42;;;;;;;4.67;3.83;;;;;;;;;;5049250;28;20756;-71
2023/08/27 01:05:09;;;;;;;6.07;4.23;;;;;;;;;;5049293;28;20215;-70
2023/08/27 01:07:47;;;;;;;5.10;4.10;;;;;;;;;;5044602;28;20220;-71
2023/08/27 01:10:19;;;;;;;7.07;4.07;;;;;;;;;;5043609;28;20199;-71
2023/08/27 01:12:59;;;;;;;7.47;4.00;;;;;;;;;;5045515;28;20217;-71
2023/08/27 01:15:27;;;;;;;4.90;4.23;;;;;;;;;;5042846;28;20265;-71
2023/08/27 01:17:54;;;;;;;5.50;4.40;;;;;;;;;;5049424;28;20195;-71
2023/08/27 01:20:20;;;;;;;4.90;3.60;;;;;;;;;;5046877;28;20203;-71
2023/08/27 01:22:47;;;;;;;4.13;3.73;;;;;;;;;;5049225;28;20195;-71
2023/08/27 01:25:16;;;;;;;6.43;3.77;;;;;;;;;;5041091;28;20233;-71
2023/08/27 01:27:50;;;;;;;6.83;3.80;;;;;;;;;;5044238;28;20793;-72
2023/08/27 01:30:20;;;;;;;6.00;4.10;;;;;;;;;;5039866;28;20203;-71
2023/08/27 01:32:54;;;;;;;4.53;3.50;;;;;;;;;;5047347;28;20197;-72
2023/08/27 01:35:21;;;;;;;9.17;4.20;;;;;;;;;;5041313;28;20215;-71
2023/08/27 01:37:48;;;;;;;8.17;3.90;;;;;;;;;;5041705;28;20765;-71
2023/08/27 01:40:17;;;;;;;5.20;3.57;;;;;;;;;;5039223;28;20218;-71
2023/08/27 01:42:43;;;;;;;4.13;3.63;;;;;;;;;;5043715;28;20281;-72
2023/08/27 01:45:10;;;;;;;5.80;3.77;;;;;;;;;;5051367;28;20223;-72
2023/08/27 01:47:36;;;;;;;7.00;3.90;;;;;;;;;;5048840;28;20562;-71
2023/08/27 01:50:03;;;;;;;5.40;3.80;;;;;;;;;;5040645;28;20282;-71
2023/08/27 01:52:29;;;;;;;7.67;3.60;;;;;;;;;;5050598;28;20282;-71
2023/08/27 01:54:55;;;;;;;6.70;3.93;;;;;;;;;;5051420;28;20234;-71
2023/08/27 01:57:22;;;;;;;5.27;4.00;;;;;;;;;;5049691;28;20225;-72
2023/08/27 01:59:48;;;;;;;7.53;4.00;;;;;;;;;;5044007;28;20200;-72
2023/08/27 02:02:14;;;;;;;6.00;4.00;;;;;;;;;;5049747;28;20203;-71
2023/08/27 02:04:41;;;;;;;5.47;4.00;;;;;;;;;;5052452;28;20605;-71
2023/08/27 02:07:08;;;;;;;6.27;4.03;;;;;;;;;;5052698;28;20241;-71
2023/08/27 02:09:34;;;;;;;6.40;4.07;;;;;;;;;;5049527;28;20292;-71
2023/08/27 02:12:00;;;;;;;4.90;3.90;;;;;;;;;;5050894;28;20198;-71
2023/08/27 02:14:27;;;;;;;7.57;4.43;;;;;;;;;;5052516;28;20205;-71
2023/08/27 02:16:53;;;;;;;6.73;4.30;;;;;;;;;;5048375;28;20237;-71
2023/08/27 02:19:20;;;;;;;8.23;4.00;;;;;;;;;;5052713;28;20473;-72
2023/08/27 02:21:46;;;;;;;5.70;3.97;;;;;;;;;;5052336;28;20594;-71
2023/08/27 02:24:12;;;;;;;5.70;3.83;;;;;;;;;;5034602;28;20195;-71
2023/08/27 02:26:39;;;;;;;6.93;3.80;;;;;;;;;;5040869;28;20251;-71
2023/08/27 02:29:05;;;;;;;5.90;4.00;;;;;;;;;;5050879;28;20198;-71
2023/08/27 02:31:31;;;;;;;5.53;4.10;;;;;;;;;;5052488;28;20294;-71
2023/08/27 02:33:58;;;;;;;5.67;4.27;;;;;;;;;;5050665;28;20643;-72
2023/08/27 02:36:25;;;;;;;6.77;4.17;;;;;;;;;;5049535;28;20219;-72
2023/08/27 02:38:52;;;;;;;7.97;4.50;;;;;;;;;;5048832;28;20206;-72
2023/08/27 02:41:18;;;;;;;4.90;3.90;;;;;;;;;;5052270;28;20199;-72
2023/08/27 02:43:44;;;;;;;5.70;4.20;;;;;;;;;;5051867;28;20209;-71
2023/08/27 02:46:11;;;;;;;7.23;4.10;;;;;;;;;;5046461;28;20238;-72
2023/08/27 02:48:37;;;;;;;6.23;3.80;;;;;;;;;;5049594;28;20256;-71
2023/08/27 02:51:03;;;;;;;4.60;3.97;;;;;;;;;;5051588;28;20199;-72
2023/08/27 02:53:29;;;;;;;6.60;4.33;;;;;;;;;;5051986;28;20191;-72
2023/08/27 02:55:56;;;;;;;5.30;4.67;;;;;;;;;;5050724;28;20309;-71
2023/08/27 02:58:22;;;;;;;6.23;4.30;;;;;;;;;;5031684;28;20576;-72
2023/08/27 03:00:48;;;;;;;4.73;3.70;;;;;;;;;;5052186;28;20293;-72
2023/08/27 03:03:15;;;;;;;5.33;4.07;;;;;;;;;;5051420;28;20203;-70
2023/08/27 03:05:41;;;;;;;7.87;4.20;;;;;;;;;;5051409;28;20317;-71
2023/08/27 03:08:07;;;;;;;5.77;4.07;;;;;;;;;;5046027;28;20219;-71
2023/08/27 03:10:33;;;;;;;6.47;4.23;;;;;;;;;;5051893;28;20203;-73
2023/08/27 03:13:00;;;;;;;5.90;3.93;;;;;;;;;;5051430;28;20598;-71
2023/08/27 03:15:26;;;;;;;4.83;4.10;;;;;;;;;;5051491;28;20222;-72
2023/08/27 03:17:53;;;;;;;6.50;4.10;;;;;;;;;;5043816;28;20387;-72
2023/08/27 03:20:19;;;;;;;5.03;4.00;;;;;;;;;;5043618;28;20203;-72
2023/08/27 03:22:45;;;;;;;4.63;4.13;;;;;;;;;;5051382;28;20675;-71
2023/08/27 03:25:12;;;;;;;6.37;4.00;;;;;;;;;;5051183;28;20230;-72
2023/08/27 03:27:38;;;;;;;5.70;4.47;;;;;;;;;;5047948;28;20215;-73
2023/08/27 03:30:04;;;;;;;8.53;4.40;;;;;;;;;;5049300;28;20616;-72
2023/08/27 03:32:31;;;;;;;5.83;3.90;;;;;;;;;;5051302;28;20278;-72
2023/08/27 03:34:57;;;;;;;7.03;4.50;;;;;;;;;;5050871;28;20226;-71
2023/08/27 03:37:23;;;;;;;5.60;4.00;;;;;;;;;;5049710;28;20222;-71
2023/08/27 03:39:50;;;;;;;6.40;3.60;;;;;;;;;;5051339;28;20273;-72
2023/08/27 03:42:16;;;;;;;6.10;4.23;;;;;;;;;;5033174;28;20278;-71
2023/08/27 03:44:42;;;;;;;9.43;4.17;;;;;;;;;;5046406;28;20219;-70
2023/08/27 03:47:09;;;;;;;7.00;3.93;;;;;;;;;;5048307;28;20306;-71
2023/08/27 03:49:35;;;;;;;5.20;3.90;;;;;;;;;;5051004;28;20543;-71
2023/08/27 03:52:01;;;;;;;14.67;3.90;;;;;;;;;;5050727;28;20696;-72
2023/08/27 03:54:27;;;;;;;6.27;3.97;;;;;;;;;;5050583;28;20191;-72
2023/08/27 03:56:54;;;;;;;5.20;3.90;;;;;;;;;;5047031;28;20199;-72
2023/08/27 03:59:20;;;;;;;4.70;3.50;;;;;;;;;;5050697;28;20581;-72
2023/08/27 04:01:47;;;;;;;4.80;3.03;;;;;;;;;;5050397;28;20213;-72
2023/08/27 04:04:13;;;;;;;5.50;3.57;;;;;;;;;;5049917;28;20211;-72
2023/08/27 04:06:39;;;;;;;6.97;3.83;;;;;;;;;;5041856;28;20230;-71
2023/08/27 04:09:06;;;;;;;5.13;3.50;;;;;;;;;;5047663;28;20459;-72
2023/08/27 04:11:33;;;;;;;4.80;3.63;;;;;;;;;;5050464;28;20381;-70
2023/08/27 04:14:00;;;;;;;4.20;3.50;;;;;;;;;;5050021;28;20250;-72
2023/08/27 04:16:26;;;;;;;3.50;2.97;;;;;;;;;;5043426;28;20280;-72
2023/08/27 04:18:52;;;;;;;6.57;3.77;;;;;;;;;;5048659;28;20210;-72
2023/08/27 04:21:19;;;;;;;4.70;3.20;;;;;;;;;;5042475;28;20199;-70
2023/08/27 04:23:45;;;;;;;6.20;3.97;;;;;;;;;;5050102;28;20281;-71
2023/08/27 04:26:12;;;;;;;5.90;3.43;;;;;;;;;;5048869;28;20219;-72
2023/08/27 04:28:39;;;;;;;5.90;3.43;;;;;;;;;;5042905;28;20229;-72
2023/08/27 04:31:05;;;;;;;4.73;3.60;;;;;;;;;;5050421;28;20278;-72
2023/08/27 04:33:32;;;;;;;5.67;3.97;;;;;;;;;;5050349;28;20230;-71
2023/08/27 04:35:58;;;;;;;6.30;3.60;;;;;;;;;;5042612;28;20646;-71
2023/08/27 04:38:24;;;;;;;5.50;3.63;;;;;;;;;;5046796;28;20202;-72
2023/08/27 04:40:54;;;;;;;4.60;3.10;;;;;;;;;;5049856;28;20198;-72
2023/08/27 04:43:20;;;;;;;5.00;3.77;;;;;;;;;;5041638;28;20195;-71
2023/08/27 04:45:47;;;;;;;5.10;3.70;;;;;;;;;;5049612;28;20659;-72
2023/08/27 04:48:14;;;;;;;5.57;4.03;;;;;;;;;;5044128;28;20253;-71
2023/08/27 04:50:46;;;;;;;4.97;3.90;;;;;;;;;;5049791;28;20207;-72
2023/08/27 04:53:12;;;;;;;6.97;4.17;;;;;;;;;;5049869;28;20206;-71
2023/08/27 04:55:39;;;;;;;7.57;4.20;;;;;;;;;;5049591;28;20306;-71
2023/08/27 04:58:07;;;;;;;5.27;3.73;;;;;;;;;;5046426;28;20205;-72
2023/08/27 05:00:34;;;;;;;4.83;3.70;;;;;;;;;;5026514;28;20744;-71
2023/08/27 05:03:02;;;;;;;9.70;4.30;;;;;;;;;;5049563;28;20685;-71
2023/08/27 05:05:28;;;;;;;5.07;3.90;;;;;;;;;;5049462;28;20222;-71
2023/08/27 05:07:55;;;;;;;4.83;3.57;;;;;;;;;;5042475;28;20219;-72
2023/08/27 05:10:21;;;;;;;4.67;3.60;;;;;;;;;;5040752;28;20249;-71
2023/08/27 05:12:47;;;;;;;4.37;3.53;;;;;;;;;;5049187;28;20194;-71
2023/08/27 05:15:16;;;;;;;6.83;3.93;;;;;;;;;;5049252;28;20230;-71
2023/08/27 05:17:43;;;;;;;5.30;3.73;;;;;;;;;;5031461;28;20195;-71
2023/08/27 05:20:09;;;;;;;4.50;3.73;;;;;;;;;;5041964;28;20239;-71
2023/08/27 05:22:36;;;;;;;5.60;3.70;;;;;;;;;;5049457;28;20199;-71
2023/08/27 05:25:02;;;;;;;5.73;3.87;;;;;;;;;;5048849;28;20287;-71
2023/08/27 05:27:29;;;;;;;5.27;3.57;;;;;;;;;;5049641;28;20215;-71
2023/08/27 05:29:55;;;;;;;5.37;3.83;;;;;;;;;;5044432;28;20214;-71
2023/08/27 05:32:21;;;;;;;5.07;3.30;;;;;;;;;;5049430;28;20225;-71
2023/08/27 05:34:47;;;;;;;3.67;3.23;;;;;;;;;;5049089;28;20297;-71
2023/08/27 05:37:14;;;;;;;3.87;3.40;;;;;;;;;;5049269;28;20202;-71
2023/08/27 05:39:40;;;;;;;5.47;3.43;;;;;;;;;;5044440;28;20786;-71
2023/08/27 05:42:06;;;;;;;4.57;3.30;;;;;;;;;;5047346;28;20209;-71
2023/08/27 05:44:32;;;;;;;4.23;3.10;;;;;;;;;;5049132;28;20205;-71
2023/08/27 05:46:59;;;;;;;5.27;3.00;;;;;;;;;;5048979;28;20245;-71
2023/08/27 05:49:25;;;;;;;4.87;3.20;;;;;;;;;;5049227;28;20205;-71
2023/08/27 05:51:51;;;;;;;4.87;2.70;;;;;;;;;;5042635;28;20659;-71
2023/08/27 05:54:18;;;;;;;5.10;3.00;;;;;;;;;;5048361;28;20195;-71
2023/08/27 05:56:44;;;;;;;4.27;3.00;;;;;;;;;;5048701;28;20793;-71
2023/08/27 05:59:13;;;;;;;8.93;2.90;;;;;;;;;;5046868;28;20304;-70
2023/08/27 06:01:41;;;;;;;3.93;3.00;;;;;;;;;;5047400;28;20205;-71
2023/08/27 06:04:08;;;;;;;2.73;2.53;;;;;;;;;;5048682;28;20237;-71
2023/08/27 06:06:36;;;;;;;4.73;3.00;;;;;;;;;;5048578;28;20251;-71
2023/08/27 06:09:03;;;;;;;6.17;3.40;;;;;;;;;;5044540;28;20200;-71
2023/08/27 06:11:29;;;;;;;4.70;3.10;;;;;;;;;;5043822;28;20492;-71
2023/08/27 06:13:56;;;;;;;5.00;3.00;;;;;;;;;;5048724;28;20213;-71
2023/08/27 06:16:22;;;;;;;4.30;2.73;;;;;;;;;;5048764;28;20229;-71
2023/08/27 06:18:48;;;;;;;5.73;3.30;;;;;;;;;;5042087;28;20203;-71
2023/08/27 06:21:15;;;;;;;4.67;3.20;;;;;;;;;;5047719;28;20207;-71
2023/08/27 06:23:41;;;;;;;6.33;3.60;;;;;;;;;;5048584;28;20196;-71
2023/08/27 06:26:07;;;;;;;5.47;3.20;;;;;;;;;;5048679;28;20222;-71
2023/08/27 06:28:34;;;;;;;4.30;2.90;;;;;;;;;;5045841;28;20717;-71
2023/08/27 06:31:00;;;;;;;4.97;3.17;;;;;;;;;;5049108;28;20197;-71
2023/08/27 06:33:26;;;;;;;5.73;2.93;;;;;;;;;;5052234;28;20248;-71
2023/08/27 06:35:53;;;;;;;5.93;3.33;;;;;;;;;;5051901;28;20221;-71
2023/08/27 06:38:19;;;;;;;3.33;2.83;;;;;;;;;;5043893;28;20747;-71
2023/08/27 06:40:46;;;;;;;4.70;3.13;;;;;;;;;;5034432;28;20281;-71
2023/08/27 06:43:12;;;;;;;6.00;2.83;;;;;;;;;;5052065;28;20206;-71
2023/08/27 06:45:38;;;;;;;3.87;2.90;;;;;;;;;;5051599;28;20218;-71
2023/08/27 06:48:04;;;;;;;5.20;2.70;;;;;;;;;;5049280;28;20219;-71
2023/08/27 06:50:31;;;;;;;5.60;2.60;;;;;;;;;;5051952;28;20237;-71
2023/08/27 06:52:57;;;;;;;3.00;2.40;;;;;;;;;;5052047;28;20876;-71
2023/08/27 06:55:23;;;;;;;4.80;2.60;;;;;;;;;;5034013;28;20301;-70
2023/08/27 06:57:50;;;;;;;3.80;2.50;;;;;;;;;;5052147;28;20230;-71
2023/08/27 07:00:17;;;;;;;5.97;2.40;;;;;;;;;;5051780;28;20207;-71
2023/08/27 07:02:44;;;;;;;3.57;2.77;;;;;;;;;;5049678;28;20202;-71
2023/08/27 07:05:10;;;;;;;2.47;2.13;;;;;;;;;;5051222;28;20726;-71
2023/08/27 07:07:40;;;;;;;3.33;2.50;;;;;;;;;;5030243;28;20713;-70
2023/08/27 07:10:07;;;;;;;2.87;2.30;;;;;;;;;;5048863;28;20576;-70
2023/08/27 07:12:34;;;;;;;4.07;2.30;;;;;;;;;;5051680;28;20226;-71
2023/08/27 07:15:01;;;;;;;5.43;2.43;;;;;;;;;;5051007;28;20306;-71
2023/08/27 07:17:27;;;;;;;4.40;2.77;;;;;;;;;;5032909;28;20210;-71
2023/08/27 07:19:54;;;;;;;4.33;2.50;;;;;;;;;;5051460;28;20203;-71
2023/08/27 07:22:21;;;;;;;3.23;2.27;;;;;;;;;;5051259;28;20195;-71
2023/08/27 07:24:48;;;;;;;5.80;2.30;;;;;;;;;;5050923;28;20576;-71
2023/08/27 07:27:14;;;;;;;3.83;2.50;;;;;;;;;;5043112;28;20250;-71
2023/08/27 07:29:41;;;;;;;4.33;2.20;;;;;;;;;;5051292;28;20202;-71
2023/08/27 07:32:08;;;;;;;3.17;2.47;;;;;;;;;;5050834;28;20308;-71
2023/08/27 07:34:34;;;;;;;3.93;2.40;;;;;;;;;;5051120;28;20191;-71
2023/08/27 07:37:00;;;;;;;5.03;2.47;;;;;;;;;;5043645;28;20194;-71
2023/08/27 07:39:28;;;;;;;3.10;2.80;;;;;;;;;;5051203;28;20286;-71
2023/08/27 07:41:55;;;;;;;2.40;2.13;;;;;;;;;;5050746;28;20289;-71
2023/08/27 07:44:21;;;;;;;3.13;2.50;;;;;;;;;;5050825;28;20277;-70
2023/08/27 07:46:47;;;;;;;3.03;2.53;;;;;;;;;;5042389;28;20205;-71
2023/08/27 07:49:14;;;;;;;3.27;2.30;;;;;;;;;;5051041;28;20225;-71
2023/08/27 07:51:40;;;;;;;4.60;2.40;;;;;;;;;;5051011;28;20278;-71
2023/08/27 07:54:06;;;;;;;6.03;2.40;;;;;;;;;;5050534;28;20669;-71
2023/08/27 07:56:32;;;;;;;3.00;2.60;;;;;;;;;;5048488;28;20214;-71
2023/08/27 07:58:59;;;;;;;4.50;2.70;;;;;;;;;;5049311;28;20206;-71
2023/08/27 08:01:26;;;;;;;4.77;2.70;;;;;;;;;;5032528;28;20199;-71
2023/08/27 08:03:52;;;;;;;3.20;2.50;;;;;;;;;;5050745;28;20685;-71
2023/08/27 08:06:19;;;;;;;3.43;2.73;;;;;;;;;;5050510;28;20586;-71
2023/08/27 08:08:45;;;;;;;7.83;2.23;;;;;;;;;;5042948;28;20310;-71
2023/08/27 08:11:11;;;;;;;3.70;2.13;;;;;;;;;;5048168;28;20195;-71
2023/08/27 08:13:40;;;;;;;3.10;2.10;;;;;;;;;;5050321;28;20290;-71
2023/08/27 08:16:06;;;;;;;4.67;2.77;;;;;;;;;;5050185;28;20262;-71
2023/08/27 08:18:33;;;;;;;4.47;2.90;;;;;;;;;;5046345;28;20203;-71
2023/08/27 08:21:00;;;;;;;3.70;2.50;;;;;;;;;;5044942;28;20619;-71
2023/08/27 08:23:27;;;;;;;4.87;3.00;;;;;;;;;;5042451;28;20203;-71
2023/08/27 08:25:53;;;;;;;3.73;2.70;;;;;;;;;;5049762;28;20301;-71
2023/08/27 08:28:20;;;;;;;6.93;2.80;;;;;;;;;;5050158;28;20720;-71
2023/08/27 08:30:48;;;;;;;4.20;2.80;;;;;;;;;;5046984;28;20201;-71
2023/08/27 08:33:14;;;;;;;4.40;2.47;;;;;;;;;;5049628;28;20203;-71
2023/08/27 08:35:41;;;;;;;3.45;2.38;;;;;;;;;;5050032;28;20218;-71
2023/08/27 08:38:08;;;;;;;4.03;2.50;;;;;;;;;;5050112;28;20650;-71
2023/08/27 08:40:37;;;;;;;4.85;2.70;;;;;;;;;;5046441;28;20213;-71
2023/08/27 08:43:03;;;;;;;5.85;2.70;;;;;;;;;;5045998;28;20195;-71
2023/08/27 08:45:59;;;;;;;3.75;2.47;;;;;;;;;;5050074;28;20215;-71
2023/08/27 08:48:26;;;;;;;4.28;2.22;;;;;;;;;;5030281;28;20305;-71
2023/08/27 08:50:53;;;;;;;3.38;2.30;;;;;;;;;;5041927;28;20226;-71
2023/08/27 08:53:22;;;;;;;3.35;2.13;;;;;;;;;;5048623;28;20202;-71
2023/08/27 08:55:51;;;;;;;3.53;2.72;;;;;;;;;;5049461;28;20301;-71
2023/08/27 08:58:19;;;;;;;5.05;2.88;;;;;;;;;;5049986;28;20199;-71
2023/08/27 09:00:45;;;;;;;4.55;2.47;;;;;;;;;;5045013;28;20203;-71
2023/08/27 09:03:14;;;;;;;3.22;2.20;;;;;;;;;;5047049;28;20202;-71
2023/08/27 09:05:40;;;;;;;3.90;2.22;;;;;;;;;;5049243;28;20603;-72
2023/08/27 09:08:08;;;;;;;4.95;2.15;;;;;;;;;;5031562;28;20226;-71
2023/08/27 09:10:35;;;;;;;4.47;2.03;;;;;;;;;;5041361;28;20205;-71
2023/08/27 09:13:02;;;;;;;3.58;2.35;;;;;;;;;;5046721;28;20210;-71
2023/08/27 09:15:29;;;;;;;5.80;2.60;;;;;;;;;;5040981;28;20698;-71
2023/08/27 09:17:55;;;;;;;6.47;2.65;;;;;;;;;;5044863;28;20298;-71
2023/08/27 09:20:21;;;;;;;4.18;2.88;;;;;;;;;;5049562;28;20670;-71
2023/08/27 09:22:48;;;;;;;4.22;2.60;;;;;;;;;;5049917;28;20625;-71
2023/08/27 09:25:14;;;;;;;4.07;2.53;;;;;;;;;;5047825;28;20222;-71
2023/08/27 09:27:40;;;;;;;3.60;2.63;;;;;;;;;;5043067;28;20203;-71
2023/08/27 09:30:07;;;;;;;3.65;2.20;;;;;;;;;;5049224;28;20194;-71
2023/08/27 09:32:33;;;;;;;5.93;2.60;;;;;;;;;;5049402;28;20201;-72
2023/08/27 09:35:00;;;;;;;2.70;1.90;;;;;;;;;;5044862;28;20298;-71
2023/08/27 09:37:27;;;;;;;2.92;2.45;;;;;;;;;;5049325;28;20198;-71
2023/08/27 09:39:54;;;;;;;4.63;2.47;;;;;;;;;;5049089;28;20573;-71
2023/08/27 09:42:21;;;;;;;3.05;2.60;;;;;;;;;;5048939;28;20221;-71
2023/08/27 09:44:50;;;;;;;4.45;2.05;;;;;;;;;;5044692;28;20310;-72
2023/08/27 09:47:17;;;;;;;3.17;2.00;;;;;;;;;;5049033;28;20287;-71
2023/08/27 09:49:44;;;;;;;3.88;2.00;;;;;;;;;;5049608;28;20301;-72
2023/08/27 09:52:10;;;;;;;3.60;1.88;;;;;;;;;;5047015;28;20203;-71
2023/08/27 09:54:37;;;;;;;2.75;1.77;;;;;;;;;;5048956;28;20286;-72
2023/08/27 09:57:03;;;;;;;3.58;2.00;;;;;;;;;;5049199;28;20286;-72
2023/08/27 09:59:30;;;;;;;2.45;1.77;;;;;;;;;;5041151;28;20194;-72
2023/08/27 10:01:56;;;;;;;3.55;2.08;;;;;;;;;;5047156;28;20202;-72
2023/08/27 10:04:23;;;;;;;2.35;1.90;;;;;;;;;;5048235;28;20206;-72
2023/08/27 10:06:49;;;;;;;3.25;1.70;;;;;;;;;;5052224;28;20225;-71
2023/08/27 10:09:16;;;;;;;2.72;1.90;;;;;;;;;;5050547;28;20600;-72
2023/08/27 10:11:45;;;;;;;2.58;1.90;;;;;;;;;;5050858;28;20195;-72
2023/08/27 10:14:13;;;;;;;2.20;1.88;;;;;;;;;;5052452;28;20205;-72
2023/08/27 10:16:39;;;;;;;5.03;2.35;;;;;;;;;;5052904;28;20695;-72
2023/08/27 10:19:06;;;;;;;4.57;1.88;;;;;;;;;;5052463;28;20289;-72
2023/08/27 10:21:35;;;;;;;4.03;1.95;;;;;;;;;;5043994;28;20600;-72
2023/08/27 10:24:02;;;;;;;2.22;1.98;;;;;;;;;;5050519;28;20203;-73
2023/08/27 10:26:30;;;;;;;1.88;1.67;;;;;;;;;;5050180;28;20222;-72
2023/08/27 10:28:58;;;;;;;3.10;1.83;;;;;;;;;;5052093;28;20721;-73
2023/08/27 10:31:25;;;;;;;3.53;2.10;;;;;;;;;;5033289;28;20238;-72
2023/08/27 10:33:51;;;;;;;4.13;2.00;;;;;;;;;;5047221;28;20234;-72
2023/08/27 10:36:24;;;;;;;2.55;2.08;;;;;;;;;;5052078;28;20215;-72
2023/08/27 10:38:52;;;;;;;3.97;2.08;;;;;;;;;;5052472;28;20229;-72
2023/08/27 10:41:21;;;;;;;3.38;2.20;;;;;;;;;;5033413;28;20209;-72
2023/08/27 10:43:48;;;;;;;2.15;1.67;;;;;;;;;;5052073;28;20203;-73
2023/08/27 10:46:17;;;;;;;2.50;1.80;;;;;;;;;;5051965;28;20309;-72
2023/08/27 10:48:48;;;;;;;2.47;1.90;;;;;;;;;;5052359;28;20241;-72
2023/08/27 10:51:15;;;;;;;3.13;1.90;;;;;;;;;;5049640;28;20272;-72
2023/08/27 10:53:50;;;;;;;3.40;1.90;;;;;;;;;;5051773;28;20202;-72
2023/08/27 10:56:26;;;;;;;2.88;1.80;;;;;;;;;;5051374;28;20233;-73
2023/08/27 10:58:56;;;;;;;2.08;1.58;;;;;;;;;;5051250;28;20230;-73
2023/08/27 11:01:22;;;;;;;2.83;1.55;;;;;;;;;;5051732;28;20205;-73
2023/08/27 11:03:56;;;;;;;2.67;1.40;;;;;;;;;;5051641;28;20244;-73
2023/08/27 11:06:33;;;;;;;7.28;5.13;;;;;;;;;;5051492;28;20223;-73
2023/08/27 11:09:00;;;;;;;3.40;2.35;;;;;;;;;;5050252;28;20250;-73
2023/08/27 11:11:30;;;;;;;3.75;3.00;;;;;;;;;;5051735;28;20230;-73
2023/08/27 11:14:08;;;;;;;2.88;2.05;;;;;;;;;;5051711;28;20279;-72
2023/08/27 11:16:57;;;;;;;2.13;1.60;;;;;;;;;;5049083;28;20269;-72
2023/08/27 11:19:34;;;;;;;3.30;1.50;;;;;;;;;;5033880;28;20294;-72
2023/08/27 11:22:12;;;;;;;2.00;1.40;;;;;;;;;;5048641;28;20685;-73
2023/08/27 11:24:43;;;;;;;2.65;1.58;;;;;;;;;;5043620;28;20198;-72
2023/08/27 11:27:10;;;;;;;3.17;1.58;;;;;;;;;;5051088;28;20238;-73
2023/08/27 11:29:41;;;;;;;2.40;1.80;;;;;;;;;;5051032;28;20215;-72
2023/08/27 11:32:08;;;;;;;3.72;2.00;;;;;;;;;;5043009;28;20204;-73
2023/08/27 11:34:35;;;;;;;6.78;5.03;;;;;;;;;;5042785;28;20203;-73
2023/08/27 11:37:03;;;;;;;2.80;2.13;;;;;;;;;;5051151;28;20195;-73
2023/08/27 11:39:30;;;;;;;2.65;1.90;;;;;;;;;;5051181;28;20317;-73
2023/08/27 11:41:56;;;;;;;1.65;1.50;;;;;;;;;;5045771;28;20209;-72
2023/08/27 11:44:23;;;;;;;2.22;1.92;;;;;;;;;;5048308;28;20217;-72
2023/08/27 11:46:51;;;;;;;2.60;1.80;;;;;;;;;;5050952;28;20199;-72
2023/08/27 11:49:30;;;;;;;2.92;1.92;;;;;;;;;;5049369;28;20222;-73
2023/08/27 11:51:59;;;;;;;2.33;1.67;;;;;;;;;;5051077;28;20195;-73
2023/08/27 11:54:30;;;;;;;1.83;1.50;;;;;;;;;;5050059;28;20195;-73
2023/08/27 11:56:57;;;;;;;2.50;1.60;;;;;;;;;;5046444;28;20672;-73
2023/08/27 11:59:29;;;;;;;2.35;1.55;;;;;;;;;;5047779;28;20199;-73
2023/08/27 12:01:57;;;;;;;1.42;1.25;;;;;;;;;;5050468;28;20199;-72
2023/08/27 12:04:27;;;;;;;2.38;1.52;;;;;;;;;;5050101;28;20213;-72
2023/08/27 12:06:56;;;;;;;4.05;1.65;;;;;;;;;;5050755;28;20205;-73
2023/08/27 12:09:24;;;;;;;5.20;1.90;;;;;;;;;;5031440;28;20353;-73
2023/08/27 12:11:50;;;;;;;3.45;1.98;;;;;;;;;;5052297;28;20200;-72
2023/08/27 12:14:24;;;;;;;3.13;2.00;;;;;;;;;;5052116;28;20199;-74
2023/08/27 12:16:51;;;;;;;5.57;1.90;;;;;;;;;;5050618;28;20746;-73
2023/08/27 12:19:21;;;;;;;3.30;1.67;;;;;;;;;;5046611;28;20268;-73
2023/08/27 12:21:55;;;;;;;8.57;2.00;;;;;;;;;;5048682;28;20205;-72
2023/08/27 12:24:31;;;;;;;4.43;1.90;;;;;;;;;;5050800;28;20202;-72
2023/08/27 12:27:02;;;;;;;2.87;2.00;;;;;;;;;;5032759;28;20206;-72
2023/08/27 12:29:30;;;;;;;4.00;1.80;;;;;;;;;;5047191;28;20702;-73
2023/08/27 12:31:56;;;;;;;3.15;1.80;;;;;;;;;;5047287;28;20199;-73
2023/08/27 12:34:33;;;;;;;3.47;1.65;;;;;;;;;;5049821;28;20213;-73
2023/08/27 12:37:00;;;;;;;3.53;1.67;;;;;;;;;;5050317;28;20195;-73
2023/08/27 12:39:26;;;;;;;2.63;1.63;;;;;;;;;;5050143;28;20207;-74
2023/08/27 12:41:52;;;;;;;2.05;1.40;;;;;;;;;;5044664;28;20670;-73
2023/08/27 12:44:19;;;;;;;2.15;1.27;;;;;;;;;;5049868;28;20207;-73
2023/08/27 12:46:45;;;;;;;2.47;1.50;;;;;;;;;;5049858;28;20218;-73
2023/08/27 12:49:11;;;;;;;3.10;1.50;;;;;;;;;;5049107;28;20309;-73
2023/08/27 12:51:37;;;;;;;2.50;1.27;;;;;;;;;;5040676;28;20194;-72
2023/08/27 12:54:04;;;;;;;2.75;1.55;;;;;;;;;;5049866;28;20288;-73
2023/08/27 12:56:30;;;;;;;2.55;1.50;;;;;;;;;;5049612;28;20593;-73
2023/08/27 12:58:57;;;;;;;3.13;1.70;;;;;;;;;;5050090;28;20199;-73
2023/08/27 13:01:23;;;;;;;3.28;1.60;;;;;;;;;;5041348;28;20211;-73
2023/08/27 13:03:49;;;;;;;3.50;1.73;;;;;;;;;;5049533;28;20229;-73
2023/08/27 13:06:16;;;;;;;3.08;1.48;;;;;;;;;;5049420;28;20227;-72
2023/08/27 13:08:42;;;;;;;5.28;1.70;;;;;;;;;;5049389;28;20733;-73
2023/08/27 13:11:08;;;;;;;2.35;1.60;;;;;;;;;;5043717;28;20198;-73
2023/08/27 13:13:35;;;;;;;2.15;1.42;;;;;;;;;;5046541;28;20281;-73
2023/08/27 13:16:01;;;;;;;3.30;1.75;;;;;;;;;;5048843;28;20309;-74
2023/08/27 13:18:27;;;;;;;4.50;1.80;;;;;;;;;;5049170;28;20199;-73
2023/08/27 13:20:54;;;;;;;3.72;1.60;;;;;;;;;;5049283;28;20195;-73
2023/08/27 13:23:23;;;;;;;3.50;1.60;;;;;;;;;;5043964;28;20202;-73
2023/08/27 13:25:50;;;;;;;2.10;1.60;;;;;;;;;;5048811;28;20248;-73
2023/08/27 13:28:16;;;;;;;3.25;1.40;;;;;;;;;;5048780;28;20237;-73
2023/08/27 13:30:42;;;;;;;2.83;1.52;;;;;;;;;;5046714;28;20211;-73
2023/08/27 13:33:09;;;;;;;4.32;2.50;;;;;;;;;;5039278;28;20207;-72
2023/08/27 13:35:35;;;;;;;2.55;1.90;;;;;;;;;;5048736;28;20215;-72
2023/08/27 13:38:01;;;;;;;4.45;1.70;;;;;;;;;;5050119;28;20205;-73
2023/08/27 13:40:29;;;;;;;3.38;1.90;;;;;;;;;;5051286;28;20199;-72
2023/08/27 13:42:56;;;;;;;2.42;1.90;;;;;;;;;;5049981;28;20220;-72
2023/08/27 13:45:22;;;;;;;2.25;1.80;;;;;;;;;;5052676;28;20419;-72
2023/08/27 13:47:50;;;;;;;2.65;1.40;;;;;;;;;;5054428;28;20206;-72
2023/08/27 13:50:17;;;;;;;2.40;1.70;;;;;;;;;;5035800;28;20222;-72
2023/08/27 13:52:44;;;;;;;2.33;1.65;;;;;;;;;;5048337;28;20710;-72
2023/08/27 13:55:10;;;;;;;2.33;1.67;;;;;;;;;;5050885;28;20621;-72
2023/08/27 13:57:37;;;;;;;1.60;1.20;;;;;;;;;;5053222;28;20277;-73
2023/08/27 14:00:04;;;;;;;3.17;1.50;;;;;;;;;;5053189;28;20446;-72
2023/08/27 14:02:30;;;;;;;2.63;1.70;;;;;;;;;;5035498;28;20272;-73
2023/08/27 14:04:57;;;;;;;2.80;1.60;;;;;;;;;;5048562;28;20272;-73
2023/08/27 14:07:23;;;;;;;2.20;1.42;;;;;;;;;;5052424;28;20218;-73
2023/08/27 14:09:49;;;;;;;2.67;1.55;;;;;;;;;;5053172;28;20701;-73
2023/08/27 14:12:17;;;;;;;2.35;1.90;;;;;;;;;;5048944;28;20291;-72
2023/08/27 14:14:43;;;;;;;2.25;1.45;;;;;;;;;;5029713;28;20220;-73
2023/08/27 14:17:12;;;;;;;2.50;1.48;;;;;;;;;;5049118;28;20454;-72
2023/08/27 14:19:40;;;;;;;2.45;1.70;;;;;;;;;;5052967;28;20237;-73
2023/08/27 14:22:06;;;;;;;3.70;1.80;;;;;;;;;;5034716;28;20209;-73
2023/08/27 14:24:32;;;;;;;3.35;1.73;;;;;;;;;;5044129;28;20207;-72
2023/08/27 14:26:59;;;;;;;2.60;1.48;;;;;;;;;;5033234;28;20278;-73
2023/08/27 14:29:25;;;;;;;2.88;1.70;;;;;;;;;;5052050;28;20698;-73
2023/08/27 14:31:51;;;;;;;2.75;1.50;;;;;;;;;;5047137;28;20196;-73
2023/08/27 14:34:18;;;;;;;2.47;1.70;;;;;;;;;;5049423;28;20201;-72
2023/08/27 14:36:45;;;;;;;2.67;1.38;;;;;;;;;;5034523;28;20313;-72
2023/08/27 14:39:11;;;;;;;3.13;1.50;;;;;;;;;;5048734;28;20210;-73
2023/08/27 14:41:37;;;;;;;2.63;1.70;;;;;;;;;;5052155;28;20195;-72
2023/08/27 14:44:04;;;;;;;4.53;1.70;;;;;;;;;;5052155;28;20285;-73